If you wish to contribute or participate in the discussions about articles you are invited to join SKYbrary as a registered user

 Actions

Visby Airport

From SKYbrary Wiki

ESSV
Airport
ICAO: ESSV – IATA: VBY
Summary
Name Visby Airport
Region Europe
Territory Sweden SE.gif
Location Visby, Gotland
Serving Visby
Elevation 49.987 m
164 ft
164 ft49.987 m
Coordinates 57° 39' 44.44" N, 18° 20' 38.12" E
Runways
Designator Length Width Surface ROPS
3/21 2000 m6,561.68 ft
45 m147.638 ft
ASP yes/yes
10/28 1101 m3,612.205 ft
40 m131.234 ft
GRS /


METAR
Observation ESSV 182250Z AUTO 18009KT 9999 NCD 14/12 Q1016
Station Visby Flygplats
Date/Time 18 June 2019 22:50:00
Wind direction 180°
Wind speed 09 kts
Lowest cloud amount no clouds detected
Temperature 14°C
Dew point 12°C
Humidity 87%
QNH 1016 hPa
Weather condition n/a

Visby Airport

ICAO: ESSV IATA: VBY

Description

Visby Airport is located about 3.5 km1.89 nm
3,500 m
11,482.94 ft
north of Visby, Gotland, Sweden.

Climatology

Temperate Marine climate/Oceanic climate (Köppen climate classification Cfb). Moderately cool summer and comparatively warm winter.

Maps

Terrain

Loading map...

Airport Layout

Loading map...


Accidents & Serious Incidents at or in vicinity of ESSV

None on SKYbrary